sensor_id;sensor_type;location;lat;lon;timestamp;P1;durP1;ratioP1;P2;durP2;ratioP2
76125;SDS011;65174;48.138;21.002;2022-12-07T00:00:28;16.05;;;9.77;;
76125;SDS011;65174;48.138;21.002;2022-12-07T00:03:30;15.95;;;10.10;;
76125;SDS011;65174;48.138;21.002;2022-12-07T00:06:32;13.13;;;8.65;;
76125;SDS011;65174;48.138;21.002;2022-12-07T00:09:35;15.60;;;10.03;;
76125;SDS011;65174;48.138;21.002;2022-12-07T00:12:37;14.98;;;9.75;;
76125;SDS011;65174;48.138;21.002;2022-12-07T00:15:39;12.18;;;7.40;;
76125;SDS011;65174;48.138;21.002;2022-12-07T00:18:41;10.15;;;6.80;;
76125;SDS011;65174;48.138;21.002;2022-12-07T00:21:44;9.93;;;6.32;;
76125;SDS011;65174;48.138;21.002;2022-12-07T00:24:46;9.33;;;6.10;;
76125;SDS011;65174;48.138;21.002;2022-12-07T00:27:48;8.57;;;5.78;;
76125;SDS011;65174;48.138;21.002;2022-12-07T00:30:50;11.20;;;5.88;;
76125;SDS011;65174;48.138;21.002;2022-12-07T00:33:52;11.23;;;6.65;;
76125;SDS011;65174;48.138;21.002;2022-12-07T00:36:54;7.95;;;5.63;;
76125;SDS011;65174;48.138;21.002;2022-12-07T00:39:56;8.73;;;5.17;;
76125;SDS011;65174;48.138;21.002;2022-12-07T00:42:58;9.20;;;5.72;;
76125;SDS011;65174;48.138;21.002;2022-12-07T00:46:00;8.55;;;5.43;;
76125;SDS011;65174;48.138;21.002;2022-12-07T00:49:02;10.68;;;6.30;;
76125;SDS011;65174;48.138;21.002;2022-12-07T00:52:04;11.95;;;6.38;;
76125;SDS011;65174;48.138;21.002;2022-12-07T00:55:06;11.47;;;7.47;;
76125;SDS011;65174;48.138;21.002;2022-12-07T00:58:09;12.48;;;8.30;;
76125;SDS011;65174;48.138;21.002;2022-12-07T01:01:11;12.68;;;8.27;;
76125;SDS011;65174;48.138;21.002;2022-12-07T01:04:13;12.43;;;7.68;;
76125;SDS011;65174;48.138;21.002;2022-12-07T01:07:15;12.48;;;7.80;;
76125;SDS011;65174;48.138;21.002;2022-12-07T01:10:17;15.43;;;8.47;;
76125;SDS011;65174;48.138;21.002;2022-12-07T01:13:19;12.05;;;8.43;;
76125;SDS011;65174;48.138;21.002;2022-12-07T01:16:21;12.68;;;8.18;;
76125;SDS011;65174;48.138;21.002;2022-12-07T01:19:25;12.80;;;7.90;;
76125;SDS011;65174;48.138;21.002;2022-12-07T01:22:27;15.57;;;9.50;;
76125;SDS011;65174;48.138;21.002;2022-12-07T01:25:29;12.17;;;7.43;;
76125;SDS011;65174;48.138;21.002;2022-12-07T01:28:31;12.95;;;8.43;;
76125;SDS011;65174;48.138;21.002;2022-12-07T01:31:33;10.13;;;7.10;;
76125;SDS011;65174;48.138;21.002;2022-12-07T01:34:35;9.55;;;6.50;;
76125;SDS011;65174;48.138;21.002;2022-12-07T01:37:37;10.18;;;6.28;;
76125;SDS011;65174;48.138;21.002;2022-12-07T01:40:40;9.77;;;6.57;;
76125;SDS011;65174;48.138;21.002;2022-12-07T01:47:11;11.90;;;6.90;;
76125;SDS011;65174;48.138;21.002;2022-12-07T01:50:13;10.00;;;6.97;;
76125;SDS011;65174;48.138;21.002;2022-12-07T01:53:16;11.05;;;6.93;;
76125;SDS011;65174;48.138;21.002;2022-12-07T01:56:20;12.87;;;8.03;;
76125;SDS011;65174;48.138;21.002;2022-12-07T01:59:25;13.90;;;8.40;;
76125;SDS011;65174;48.138;21.002;2022-12-07T02:02:36;13.98;;;7.97;;
76125;SDS011;65174;48.138;21.002;2022-12-07T02:05:46;12.82;;;7.53;;
76125;SDS011;65174;48.138;21.002;2022-12-07T02:08:51;11.48;;;7.63;;
76125;SDS011;65174;48.138;21.002;2022-12-07T02:11:54;18.57;;;8.27;;
76125;SDS011;65174;48.138;21.002;2022-12-07T02:14:57;15.30;;;9.05;;
76125;SDS011;65174;48.138;21.002;2022-12-07T02:24:55;16.33;;;9.60;;
76125;SDS011;65174;48.138;21.002;2022-12-07T02:31:16;17.08;;;9.65;;
76125;SDS011;65174;48.138;21.002;2022-12-07T02:34:26;19.65;;;10.55;;
76125;SDS011;65174;48.138;21.002;2022-12-07T02:44:23;23.90;;;11.33;;
76125;SDS011;65174;48.138;21.002;2022-12-07T02:47:27;40.70;;;15.30;;
76125;SDS011;65174;48.138;21.002;2022-12-07T02:50:33;27.23;;;11.75;;
76125;SDS011;65174;48.138;21.002;2022-12-07T02:53:39;21.75;;;11.40;;
76125;SDS011;65174;48.138;21.002;2022-12-07T03:00:12;11.20;;;7.63;;
76125;SDS011;65174;48.138;21.002;2022-12-07T03:03:17;13.90;;;8.73;;
76125;SDS011;65174;48.138;21.002;2022-12-07T03:06:20;16.40;;;9.77;;
76125;SDS011;65174;48.138;21.002;2022-12-07T03:09:33;19.20;;;9.02;;
76125;SDS011;65174;48.138;21.002;2022-12-07T03:12:53;27.58;;;13.80;;
76125;SDS011;65174;48.138;21.002;2022-12-07T03:16:23;15.37;;;9.40;;
76125;SDS011;65174;48.138;21.002;2022-12-07T03:19:27;15.38;;;9.02;;
76125;SDS011;65174;48.138;21.002;2022-12-07T03:22:30;15.30;;;9.27;;
76125;SDS011;65174;48.138;21.002;2022-12-07T03:25:38;15.88;;;9.48;;
76125;SDS011;65174;48.138;21.002;2022-12-07T03:28:49;16.02;;;9.27;;
76125;SDS011;65174;48.138;21.002;2022-12-07T03:32:05;14.63;;;8.50;;
76125;SDS011;65174;48.138;21.002;2022-12-07T03:35:21;11.95;;;7.80;;
76125;SDS011;65174;48.138;21.002;2022-12-07T03:38:37;13.32;;;7.57;;
76125;SDS011;65174;48.138;21.002;2022-12-07T03:41:52;12.32;;;7.30;;
76125;SDS011;65174;48.138;21.002;2022-12-07T03:44:56;10.93;;;7.20;;
76125;SDS011;65174;48.138;21.002;2022-12-07T03:48:08;14.03;;;8.10;;
76125;SDS011;65174;48.138;21.002;2022-12-07T03:54:41;13.30;;;8.70;;
76125;SDS011;65174;48.138;21.002;2022-12-07T03:57:45;14.98;;;9.20;;
76125;SDS011;65174;48.138;21.002;2022-12-07T04:00:51;13.55;;;8.60;;
76125;SDS011;65174;48.138;21.002;2022-12-07T04:03:53;16.13;;;8.80;;
76125;SDS011;65174;48.138;21.002;2022-12-07T04:06:55;16.90;;;10.52;;
76125;SDS011;65174;48.138;21.002;2022-12-07T04:09:57;16.42;;;10.10;;
76125;SDS011;65174;48.138;21.002;2022-12-07T04:12:59;18.38;;;10.75;;
76125;SDS011;65174;48.138;21.002;2022-12-07T04:16:01;17.00;;;10.00;;
76125;SDS011;65174;48.138;21.002;2022-12-07T04:19:03;16.50;;;9.97;;
76125;SDS011;65174;48.138;21.002;2022-12-07T04:22:05;18.73;;;11.32;;
76125;SDS011;65174;48.138;21.002;2022-12-07T04:25:08;18.92;;;11.00;;
76125;SDS011;65174;48.138;21.002;2022-12-07T04:28:10;19.17;;;11.38;;
76125;SDS011;65174;48.138;21.002;2022-12-07T04:31:12;15.48;;;10.00;;
76125;SDS011;65174;48.138;21.002;2022-12-07T04:34:14;17.10;;;10.77;;
76125;SDS011;65174;48.138;21.002;2022-12-07T04:37:17;18.38;;;10.90;;
76125;SDS011;65174;48.138;21.002;2022-12-07T04:40:19;15.98;;;10.57;;
76125;SDS011;65174;48.138;21.002;2022-12-07T04:43:21;16.20;;;9.60;;
76125;SDS011;65174;48.138;21.002;2022-12-07T04:46:25;17.25;;;10.57;;
76125;SDS011;65174;48.138;21.002;2022-12-07T04:49:27;16.53;;;9.80;;
76125;SDS011;65174;48.138;21.002;2022-12-07T04:52:29;17.23;;;9.48;;
76125;SDS011;65174;48.138;21.002;2022-12-07T04:55:37;17.05;;;10.38;;
76125;SDS011;65174;48.138;21.002;2022-12-07T04:58:39;16.85;;;10.20;;
76125;SDS011;65174;48.138;21.002;2022-12-07T05:01:41;20.10;;;11.65;;
76125;SDS011;65174;48.138;21.002;2022-12-07T05:04:43;40.80;;;20.43;;
76125;SDS011;65174;48.138;21.002;2022-12-07T05:07:45;47.60;;;23.27;;
76125;SDS011;65174;48.138;21.002;2022-12-07T05:10:48;34.58;;;19.17;;
76125;SDS011;65174;48.138;21.002;2022-12-07T05:13:50;30.00;;;17.38;;
76125;SDS011;65174;48.138;21.002;2022-12-07T05:16:52;25.35;;;14.52;;
76125;SDS011;65174;48.138;21.002;2022-12-07T05:19:55;22.53;;;13.77;;
76125;SDS011;65174;48.138;21.002;2022-12-07T05:22:57;24.13;;;14.35;;
76125;SDS011;65174;48.138;21.002;2022-12-07T05:26:00;22.95;;;13.52;;
76125;SDS011;65174;48.138;21.002;2022-12-07T05:29:02;22.52;;;11.93;;
76125;SDS011;65174;48.138;21.002;2022-12-07T05:32:05;24.58;;;14.32;;
76125;SDS011;65174;48.138;21.002;2022-12-07T05:35:07;25.93;;;14.90;;
76125;SDS011;65174;48.138;21.002;2022-12-07T05:38:09;27.30;;;13.63;;
76125;SDS011;65174;48.138;21.002;2022-12-07T05:41:15;28.63;;;16.10;;
76125;SDS011;65174;48.138;21.002;2022-12-07T05:44:37;29.38;;;15.98;;
76125;SDS011;65174;48.138;21.002;2022-12-07T05:47:43;38.92;;;19.08;;
76125;SDS011;65174;48.138;21.002;2022-12-07T05:50:47;39.27;;;19.17;;
76125;SDS011;65174;48.138;21.002;2022-12-07T05:53:50;28.00;;;16.17;;
76125;SDS011;65174;48.138;21.002;2022-12-07T05:56:52;28.05;;;14.82;;
76125;SDS011;65174;48.138;21.002;2022-12-07T05:59:54;33.55;;;17.13;;
76125;SDS011;65174;48.138;21.002;2022-12-07T06:02:55;32.03;;;18.05;;
76125;SDS011;65174;48.138;21.002;2022-12-07T06:05:58;28.53;;;15.30;;
76125;SDS011;65174;48.138;21.002;2022-12-07T06:09:00;27.67;;;15.52;;
76125;SDS011;65174;48.138;21.002;2022-12-07T06:12:01;27.98;;;14.32;;
76125;SDS011;65174;48.138;21.002;2022-12-07T06:15:22;26.92;;;14.95;;
76125;SDS011;65174;48.138;21.002;2022-12-07T06:18:24;24.48;;;14.18;;
76125;SDS011;65174;48.138;21.002;2022-12-07T06:21:26;24.20;;;13.53;;
76125;SDS011;65174;48.138;21.002;2022-12-07T06:24:28;27.52;;;14.93;;
76125;SDS011;65174;48.138;21.002;2022-12-07T06:27:30;23.00;;;13.52;;
76125;SDS011;65174;48.138;21.002;2022-12-07T06:30:34;26.75;;;14.90;;
76125;SDS011;65174;48.138;21.002;2022-12-07T06:33:36;23.50;;;14.00;;
76125;SDS011;65174;48.138;21.002;2022-12-07T06:36:38;23.87;;;13.90;;
76125;SDS011;65174;48.138;21.002;2022-12-07T06:39:40;26.48;;;14.93;;
76125;SDS011;65174;48.138;21.002;2022-12-07T06:42:41;25.63;;;14.18;;
76125;SDS011;65174;48.138;21.002;2022-12-07T07:40:57;27.33;;;15.60;;
76125;SDS011;65174;48.138;21.002;2022-12-07T07:43:59;30.40;;;16.25;;
76125;SDS011;65174;48.138;21.002;2022-12-07T07:47:01;33.73;;;17.27;;
76125;SDS011;65174;48.138;21.002;2022-12-07T07:50:03;31.90;;;17.95;;
76125;SDS011;65174;48.138;21.002;2022-12-07T07:53:06;34.05;;;18.95;;
76125;SDS011;65174;48.138;21.002;2022-12-07T07:56:08;29.65;;;17.65;;
76125;SDS011;65174;48.138;21.002;2022-12-07T07:59:10;27.95;;;15.57;;
76125;SDS011;65174;48.138;21.002;2022-12-07T08:02:16;26.63;;;14.77;;
76125;SDS011;65174;48.138;21.002;2022-12-07T08:05:19;30.98;;;17.80;;
76125;SDS011;65174;48.138;21.002;2022-12-07T08:08:21;26.73;;;15.55;;
76125;SDS011;65174;48.138;21.002;2022-12-07T08:11:24;25.08;;;14.48;;
76125;SDS011;65174;48.138;21.002;2022-12-07T08:14:26;26.27;;;14.50;;
76125;SDS011;65174;48.138;21.002;2022-12-07T08:17:29;24.73;;;13.63;;
76125;SDS011;65174;48.138;21.002;2022-12-07T08:20:31;24.33;;;13.60;;
76125;SDS011;65174;48.138;21.002;2022-12-07T08:23:34;23.88;;;14.10;;
76125;SDS011;65174;48.138;21.002;2022-12-07T08:26:41;25.75;;;13.90;;
76125;SDS011;65174;48.138;21.002;2022-12-07T08:29:43;25.02;;;14.75;;
76125;SDS011;65174;48.138;21.002;2022-12-07T08:32:45;23.43;;;13.90;;
76125;SDS011;65174;48.138;21.002;2022-12-07T08:35:47;24.40;;;14.38;;
76125;SDS011;65174;48.138;21.002;2022-12-07T08:38:49;30.52;;;16.55;;
76125;SDS011;65174;48.138;21.002;2022-12-07T08:42:11;38.20;;;21.40;;
76125;SDS011;65174;48.138;21.002;2022-12-07T08:45:14;35.28;;;19.50;;
76125;SDS011;65174;48.138;21.002;2022-12-07T08:48:20;32.00;;;16.97;;
76125;SDS011;65174;48.138;21.002;2022-12-07T08:51:25;27.08;;;15.73;;
76125;SDS011;65174;48.138;21.002;2022-12-07T08:54:28;31.05;;;15.50;;
76125;SDS011;65174;48.138;21.002;2022-12-07T08:57:30;31.02;;;17.60;;
76125;SDS011;65174;48.138;21.002;2022-12-07T09:00:35;26.85;;;16.98;;
76125;SDS011;65174;48.138;21.002;2022-12-07T09:03:38;26.93;;;16.30;;
76125;SDS011;65174;48.138;21.002;2022-12-07T09:06:40;53.78;;;26.90;;
76125;SDS011;65174;48.138;21.002;2022-12-07T09:09:43;32.83;;;18.13;;
76125;SDS011;65174;48.138;21.002;2022-12-07T09:12:45;33.42;;;19.58;;
76125;SDS011;65174;48.138;21.002;2022-12-07T09:15:46;33.03;;;19.30;;
76125;SDS011;65174;48.138;21.002;2022-12-07T09:18:49;31.43;;;18.23;;
76125;SDS011;65174;48.138;21.002;2022-12-07T09:21:52;32.75;;;18.30;;
76125;SDS011;65174;48.138;21.002;2022-12-07T09:24:54;29.73;;;16.90;;
76125;SDS011;65174;48.138;21.002;2022-12-07T09:27:56;31.33;;;17.25;;
76125;SDS011;65174;48.138;21.002;2022-12-07T09:30:59;37.90;;;20.77;;
76125;SDS011;65174;48.138;21.002;2022-12-07T09:34:21;30.00;;;17.20;;
76125;SDS011;65174;48.138;21.002;2022-12-07T09:37:23;24.80;;;15.60;;
76125;SDS011;65174;48.138;21.002;2022-12-07T09:40:25;26.63;;;16.42;;
76125;SDS011;65174;48.138;21.002;2022-12-07T09:43:27;26.65;;;15.77;;
76125;SDS011;65174;48.138;21.002;2022-12-07T09:46:29;28.58;;;15.88;;
76125;SDS011;65174;48.138;21.002;2022-12-07T09:49:36;24.87;;;15.23;;
76125;SDS011;65174;48.138;21.002;2022-12-07T09:52:39;29.17;;;17.70;;
76125;SDS011;65174;48.138;21.002;2022-12-07T09:55:42;28.67;;;18.02;;
76125;SDS011;65174;48.138;21.002;2022-12-07T09:58:45;29.23;;;17.30;;
76125;SDS011;65174;48.138;21.002;2022-12-07T10:01:49;28.42;;;17.00;;
76125;SDS011;65174;48.138;21.002;2022-12-07T10:04:51;31.17;;;18.23;;
76125;SDS011;65174;48.138;21.002;2022-12-07T10:07:53;35.75;;;21.23;;
76125;SDS011;65174;48.138;21.002;2022-12-07T10:10:56;35.33;;;22.48;;
76125;SDS011;65174;48.138;21.002;2022-12-07T10:14:09;36.53;;;22.08;;
76125;SDS011;65174;48.138;21.002;2022-12-07T10:20:41;32.70;;;17.97;;
76125;SDS011;65174;48.138;21.002;2022-12-07T10:24:00;25.58;;;15.13;;
76125;SDS011;65174;48.138;21.002;2022-12-07T10:27:04;12.95;;;8.20;;
76125;SDS011;65174;48.138;21.002;2022-12-07T10:30:07;10.45;;;6.07;;
76125;SDS011;65174;48.138;21.002;2022-12-07T10:33:37;9.90;;;6.55;;
76125;SDS011;65174;48.138;21.002;2022-12-07T10:36:39;10.40;;;7.07;;
76125;SDS011;65174;48.138;21.002;2022-12-07T10:39:42;13.18;;;7.18;;
76125;SDS011;65174;48.138;21.002;2022-12-07T10:42:47;10.70;;;7.90;;
76125;SDS011;65174;48.138;21.002;2022-12-07T10:46:13;12.30;;;7.68;;
76125;SDS011;65174;48.138;21.002;2022-12-07T10:49:30;11.93;;;6.90;;
76125;SDS011;65174;48.138;21.002;2022-12-07T10:59:26;11.90;;;7.53;;
76125;SDS011;65174;48.138;21.002;2022-12-07T11:02:36;11.88;;;7.18;;
76125;SDS011;65174;48.138;21.002;2022-12-07T11:05:56;14.93;;;7.65;;
76125;SDS011;65174;48.138;21.002;2022-12-07T11:09:39;15.07;;;8.03;;
76125;SDS011;65174;48.138;21.002;2022-12-07T11:31:54;8.30;;;4.17;;
76125;SDS011;65174;48.138;21.002;2022-12-07T11:35:01;4.68;;;2.88;;
76125;SDS011;65174;48.138;21.002;2022-12-07T11:38:21;6.20;;;3.20;;
76125;SDS011;65174;48.138;21.002;2022-12-07T11:41:32;8.88;;;4.40;;
76125;SDS011;65174;48.138;21.002;2022-12-07T11:44:55;6.63;;;3.47;;
76125;SDS011;65174;48.138;21.002;2022-12-07T11:48:24;7.03;;;3.87;;
76125;SDS011;65174;48.138;21.002;2022-12-07T11:51:31;5.60;;;3.40;;
76125;SDS011;65174;48.138;21.002;2022-12-07T11:54:38;5.03;;;3.58;;
76125;SDS011;65174;48.138;21.002;2022-12-07T11:57:45;5.97;;;3.38;;
76125;SDS011;65174;48.138;21.002;2022-12-07T12:00:55;9.93;;;4.20;;
76125;SDS011;65174;48.138;21.002;2022-12-07T12:04:32;8.53;;;4.20;;
76125;SDS011;65174;48.138;21.002;2022-12-07T12:07:48;9.30;;;3.53;;
76125;SDS011;65174;48.138;21.002;2022-12-07T13:07:10;7.37;;;3.43;;
76125;SDS011;65174;48.138;21.002;2022-12-07T13:13:30;25.27;;;6.82;;
76125;SDS011;65174;48.138;21.002;2022-12-07T13:16:37;9.98;;;3.25;;
76125;SDS011;65174;48.138;21.002;2022-12-07T13:22:44;19.53;;;5.17;;
76125;SDS011;65174;48.138;21.002;2022-12-07T13:29:19;6.35;;;3.03;;
76125;SDS011;65174;48.138;21.002;2022-12-07T13:32:24;4.60;;;2.50;;
76125;SDS011;65174;48.138;21.002;2022-12-07T13:35:36;3.58;;;2.60;;
76125;SDS011;65174;48.138;21.002;2022-12-07T13:38:39;3.13;;;1.70;;
76125;SDS011;65174;48.138;21.002;2022-12-07T13:44:59;3.47;;;2.60;;
76125;SDS011;65174;48.138;21.002;2022-12-07T13:51:50;4.18;;;2.55;;
76125;SDS011;65174;48.138;21.002;2022-12-07T13:54:57;2.60;;;1.70;;
76125;SDS011;65174;48.138;21.002;2022-12-07T13:57:59;4.47;;;2.17;;
76125;SDS011;65174;48.138;21.002;2022-12-07T14:01:01;4.35;;;3.53;;
76125;SDS011;65174;48.138;21.002;2022-12-07T14:10:57;4.83;;;2.90;;
76125;SDS011;65174;48.138;21.002;2022-12-07T14:14:01;8.77;;;3.60;;
76125;SDS011;65174;48.138;21.002;2022-12-07T14:17:18;6.05;;;3.30;;
76125;SDS011;65174;48.138;21.002;2022-12-07T14:20:31;6.63;;;3.75;;
76125;SDS011;65174;48.138;21.002;2022-12-07T14:23:38;7.15;;;3.92;;
76125;SDS011;65174;48.138;21.002;2022-12-07T14:26:41;5.83;;;3.27;;
76125;SDS011;65174;48.138;21.002;2022-12-07T14:29:46;6.50;;;3.42;;
76125;SDS011;65174;48.138;21.002;2022-12-07T14:32:51;6.10;;;3.70;;
76125;SDS011;65174;48.138;21.002;2022-12-07T14:35:56;6.50;;;4.18;;
76125;SDS011;65174;48.138;21.002;2022-12-07T14:38:59;8.10;;;5.63;;
76125;SDS011;65174;48.138;21.002;2022-12-07T14:42:02;8.53;;;6.07;;
76125;SDS011;65174;48.138;21.002;2022-12-07T14:45:03;8.85;;;5.88;;
76125;SDS011;65174;48.138;21.002;2022-12-07T14:48:07;9.10;;;4.68;;
76125;SDS011;65174;48.138;21.002;2022-12-07T14:51:33;17.13;;;7.45;;
76125;SDS011;65174;48.138;21.002;2022-12-07T14:54:59;18.67;;;9.95;;
76125;SDS011;65174;48.138;21.002;2022-12-07T14:58:02;17.97;;;12.40;;
76125;SDS011;65174;48.138;21.002;2022-12-07T15:01:04;10.27;;;7.28;;
76125;SDS011;65174;48.138;21.002;2022-12-07T16:03:13;12.82;;;7.22;;
76125;SDS011;65174;48.138;21.002;2022-12-07T16:06:16;5.15;;;3.40;;
76125;SDS011;65174;48.138;21.002;2022-12-07T16:09:19;8.93;;;5.38;;
76125;SDS011;65174;48.138;21.002;2022-12-07T16:12:21;14.30;;;9.70;;
76125;SDS011;65174;48.138;21.002;2022-12-07T16:15:22;8.18;;;5.78;;
76125;SDS011;65174;48.138;21.002;2022-12-07T16:18:26;7.85;;;5.47;;
76125;SDS011;65174;48.138;21.002;2022-12-07T16:21:27;8.10;;;5.68;;
76125;SDS011;65174;48.138;21.002;2022-12-07T16:24:30;5.88;;;4.25;;
76125;SDS011;65174;48.138;21.002;2022-12-07T16:27:33;7.93;;;4.50;;
76125;SDS011;65174;48.138;21.002;2022-12-07T16:30:36;6.57;;;4.65;;
76125;SDS011;65174;48.138;21.002;2022-12-07T16:33:38;6.80;;;4.85;;
76125;SDS011;65174;48.138;21.002;2022-12-07T16:36:41;7.00;;;4.30;;
76125;SDS011;65174;48.138;21.002;2022-12-07T16:40:04;5.97;;;3.67;;
76125;SDS011;65174;48.138;21.002;2022-12-07T16:43:06;5.37;;;3.63;;
76125;SDS011;65174;48.138;21.002;2022-12-07T16:46:09;5.28;;;3.35;;
76125;SDS011;65174;48.138;21.002;2022-12-07T16:49:12;5.65;;;3.90;;
76125;SDS011;65174;48.138;21.002;2022-12-07T16:52:15;6.90;;;4.38;;
76125;SDS011;65174;48.138;21.002;2022-12-07T16:55:21;7.82;;;5.00;;
76125;SDS011;65174;48.138;21.002;2022-12-07T16:58:23;11.37;;;6.10;;
76125;SDS011;65174;48.138;21.002;2022-12-07T17:01:25;24.08;;;9.60;;
76125;SDS011;65174;48.138;21.002;2022-12-07T17:04:29;12.02;;;6.70;;
76125;SDS011;65174;48.138;21.002;2022-12-07T17:07:31;13.90;;;8.77;;
76125;SDS011;65174;48.138;21.002;2022-12-07T17:10:35;15.68;;;9.73;;
76125;SDS011;65174;48.138;21.002;2022-12-07T17:13:38;27.50;;;16.50;;
76125;SDS011;65174;48.138;21.002;2022-12-07T17:16:59;23.92;;;14.88;;
76125;SDS011;65174;48.138;21.002;2022-12-07T17:20:04;17.23;;;10.75;;
76125;SDS011;65174;48.138;21.002;2022-12-07T17:23:06;14.60;;;9.75;;
76125;SDS011;65174;48.138;21.002;2022-12-07T17:26:13;42.70;;;24.42;;
76125;SDS011;65174;48.138;21.002;2022-12-07T17:29:25;60.73;;;28.03;;
76125;SDS011;65174;48.138;21.002;2022-12-07T17:32:27;50.35;;;26.33;;
76125;SDS011;65174;48.138;21.002;2022-12-07T17:35:29;18.77;;;10.93;;
76125;SDS011;65174;48.138;21.002;2022-12-07T17:38:31;15.95;;;9.40;;
76125;SDS011;65174;48.138;21.002;2022-12-07T17:41:33;22.77;;;13.05;;
76125;SDS011;65174;48.138;21.002;2022-12-07T17:44:53;14.53;;;9.23;;
76125;SDS011;65174;48.138;21.002;2022-12-07T17:47:55;18.15;;;11.88;;
76125;SDS011;65174;48.138;21.002;2022-12-07T17:51:00;12.95;;;8.45;;
76125;SDS011;65174;48.138;21.002;2022-12-07T17:54:22;16.63;;;10.05;;
76125;SDS011;65174;48.138;21.002;2022-12-07T17:57:24;21.50;;;11.80;;
76125;SDS011;65174;48.138;21.002;2022-12-07T18:00:26;16.63;;;9.93;;
76125;SDS011;65174;48.138;21.002;2022-12-07T19:57:34;22.93;;;11.90;;
76125;SDS011;65174;48.138;21.002;2022-12-07T20:00:36;17.58;;;9.93;;
76125;SDS011;65174;48.138;21.002;2022-12-07T20:03:39;16.25;;;9.07;;
76125;SDS011;65174;48.138;21.002;2022-12-07T20:06:41;15.98;;;9.55;;
76125;SDS011;65174;48.138;21.002;2022-12-07T20:09:44;27.05;;;11.10;;
76125;SDS011;65174;48.138;21.002;2022-12-07T20:12:47;28.73;;;10.50;;
76125;SDS011;65174;48.138;21.002;2022-12-07T20:16:07;40.70;;;15.07;;
76125;SDS011;65174;48.138;21.002;2022-12-07T20:19:20;23.88;;;13.25;;
76125;SDS011;65174;48.138;21.002;2022-12-07T20:22:23;19.13;;;11.30;;
76125;SDS011;65174;48.138;21.002;2022-12-07T20:25:25;22.92;;;12.52;;
76125;SDS011;65174;48.138;21.002;2022-12-07T20:28:28;24.57;;;12.27;;
76125;SDS011;65174;48.138;21.002;2022-12-07T20:31:30;21.52;;;11.88;;
76125;SDS011;65174;48.138;21.002;2022-12-07T20:34:32;24.42;;;13.60;;
76125;SDS011;65174;48.138;21.002;2022-12-07T20:37:34;27.25;;;14.90;;
76125;SDS011;65174;48.138;21.002;2022-12-07T20:40:38;21.45;;;11.60;;
76125;SDS011;65174;48.138;21.002;2022-12-07T20:43:46;20.53;;;11.47;;
76125;SDS011;65174;48.138;21.002;2022-12-07T20:46:48;17.85;;;10.13;;
76125;SDS011;65174;48.138;21.002;2022-12-07T20:49:51;39.20;;;14.32;;
76125;SDS011;65174;48.138;21.002;2022-12-07T20:52:53;28.98;;;11.90;;
76125;SDS011;65174;48.138;21.002;2022-12-07T20:56:01;20.48;;;10.52;;
76125;SDS011;65174;48.138;21.002;2022-12-07T20:59:03;39.77;;;14.70;;
76125;SDS011;65174;48.138;21.002;2022-12-07T21:02:11;40.47;;;16.05;;
76125;SDS011;65174;48.138;21.002;2022-12-07T21:05:14;39.13;;;16.25;;
76125;SDS011;65174;48.138;21.002;2022-12-07T21:08:15;25.73;;;13.07;;
76125;SDS011;65174;48.138;21.002;2022-12-07T21:11:18;29.23;;;13.93;;
76125;SDS011;65174;48.138;21.002;2022-12-07T21:14:21;26.70;;;13.27;;
76125;SDS011;65174;48.138;21.002;2022-12-07T21:17:24;25.02;;;13.98;;
76125;SDS011;65174;48.138;21.002;2022-12-07T21:20:27;24.88;;;14.27;;
76125;SDS011;65174;48.138;21.002;2022-12-07T21:23:28;23.77;;;13.25;;
76125;SDS011;65174;48.138;21.002;2022-12-07T21:26:32;23.48;;;12.85;;
76125;SDS011;65174;48.138;21.002;2022-12-07T21:29:35;21.87;;;11.53;;
76125;SDS011;65174;48.138;21.002;2022-12-07T21:32:44;35.53;;;16.50;;
76125;SDS011;65174;48.138;21.002;2022-12-07T21:35:46;28.70;;;14.20;;
76125;SDS011;65174;48.138;21.002;2022-12-07T21:38:48;23.48;;;13.00;;
76125;SDS011;65174;48.138;21.002;2022-12-07T21:41:50;22.67;;;11.82;;
76125;SDS011;65174;48.138;21.002;2022-12-07T21:44:52;19.50;;;10.73;;
76125;SDS011;65174;48.138;21.002;2022-12-07T21:47:54;22.15;;;10.88;;
76125;SDS011;65174;48.138;21.002;2022-12-07T21:51:02;25.48;;;12.05;;
76125;SDS011;65174;48.138;21.002;2022-12-07T21:54:05;33.67;;;13.93;;
